createdAt,value
2023-03-03T00:03:46.189Z,98752.65
2023-03-03T00:09:07.751Z,98757.63
2023-03-03T00:14:33.522Z,98754.49
2023-03-03T00:19:55.837Z,98751.30
2023-03-03T00:25:33.150Z,98747.44
2023-03-03T00:31:00.813Z,98743.61
2023-03-03T00:36:31.916Z,98745.78
2023-03-03T00:41:53.712Z,98747.69
2023-03-03T00:47:38.660Z,98744.27
2023-03-03T00:53:07.526Z,98742.33
2023-03-03T00:58:29.949Z,98745.33
2023-03-03T01:03:53.594Z,98740.90
2023-03-03T01:09:15.722Z,98739.64
2023-03-03T01:14:38.445Z,98734.30
2023-03-03T01:20:01.309Z,98729.89
2023-03-03T01:25:23.450Z,98726.37
2023-03-03T01:30:45.535Z,98717.92
2023-03-03T01:36:09.476Z,98714.85
2023-03-03T01:41:33.701Z,98708.33
2023-03-03T01:47:05.843Z,98696.09
2023-03-03T01:52:31.491Z,98687.84
2023-03-03T01:57:58.640Z,98687.48
2023-03-03T02:03:22.438Z,98688.34
2023-03-03T02:09:08.299Z,98688.74
2023-03-03T02:14:30.247Z,98696.05
2023-03-03T02:20:03.420Z,98700.99
2023-03-03T02:25:58.774Z,98699.77
2023-03-03T02:31:24.749Z,98703.98
2023-03-03T02:36:47.743Z,98706.98
2023-03-03T02:42:22.189Z,98716.17
2023-03-03T02:47:52.471Z,98714.95
2023-03-03T02:53:17.423Z,98714.48
2023-03-03T02:58:39.540Z,98713.55
2023-03-03T03:04:02.012Z,98712.33
2023-03-03T03:09:25.931Z,98710.14
2023-03-03T03:14:51.359Z,98704.60
2023-03-03T03:20:14.176Z,98700.41
2023-03-03T03:25:45.626Z,98697.92
2023-03-03T03:31:10.547Z,98700.16
2023-03-03T03:36:32.745Z,98690.95
2023-03-03T03:41:55.148Z,98683.33
2023-03-03T03:47:17.674Z,98674.52
2023-03-03T03:52:39.816Z,98674.40
2023-03-03T03:58:02.853Z,98689.94
2023-03-03T04:03:25.528Z,98688.51
2023-03-03T04:08:47.510Z,98691.48
2023-03-03T04:14:09.736Z,98689.45
2023-03-03T04:19:32.765Z,98689.17
2023-03-03T04:24:55.105Z,98688.81
2023-03-03T04:30:17.131Z,98693.98
2023-03-03T04:35:40.817Z,98697.95
2023-03-03T04:41:03.319Z,98692.02
2023-03-03T04:46:28.368Z,98691.09
2023-03-03T04:51:50.374Z,98689.36
2023-03-03T04:57:12.488Z,98699.67
2023-03-03T05:02:34.441Z,98700.86
2023-03-03T05:07:57.655Z,98705.63
2023-03-03T05:13:19.589Z,98714.89
2023-03-03T05:18:42.014Z,98727.03
2023-03-03T05:24:03.639Z,98728.83
2023-03-03T05:29:26.492Z,98725.76
2023-03-03T05:34:48.609Z,98731.10
2023-03-03T05:40:11.776Z,98740.94
2023-03-03T05:45:33.465Z,98748.02
2023-03-03T05:50:58.675Z,98755.64
2023-03-03T05:56:20.607Z,98758.05
2023-03-03T06:01:42.593Z,98769.49
2023-03-03T06:07:08.809Z,98776.68
2023-03-03T06:12:30.641Z,98796.20
2023-03-03T06:17:52.670Z,98786.77
2023-03-03T06:23:14.698Z,98770.66
2023-03-03T06:28:36.710Z,98780.23
2023-03-03T06:33:58.857Z,98788.05
2023-03-03T06:39:20.689Z,98811.04
2023-03-03T06:44:42.814Z,98799.18
2023-03-03T06:50:05.243Z,98804.04
2023-03-03T06:55:27.376Z,98790.27
2023-03-03T07:00:59.297Z,98802.05
2023-03-03T07:06:27.696Z,98798.02
2023-03-03T07:11:51.444Z,98776.58
2023-03-03T07:17:24.718Z,98781.19
2023-03-03T07:22:46.748Z,98797.39
2023-03-03T07:28:25.584Z,98816.64
2023-03-03T07:33:47.257Z,98826.07
2023-03-03T07:39:40.175Z,98807.79
2023-03-03T07:45:02.511Z,98809.49
2023-03-03T07:50:24.357Z,98823.61
2023-03-03T07:55:46.567Z,98847.25
2023-03-03T08:01:30.961Z,98840.40
2023-03-03T08:06:57.863Z,98833.79
2023-03-03T08:12:35.624Z,98829.85
2023-03-03T08:17:58.265Z,98826.42
2023-03-03T08:23:21.385Z,98823.16
2023-03-03T08:28:43.208Z,98826.55
2023-03-03T08:34:06.352Z,98834.08
2023-03-03T08:39:28.375Z,98849.03
2023-03-03T08:44:50.267Z,98848.70
2023-03-03T08:50:13.208Z,98835.15
2023-03-03T08:55:35.159Z,98834.36
2023-03-03T09:00:59.108Z,98821.35
2023-03-03T09:06:21.332Z,98815.73
2023-03-03T09:11:44.763Z,98818.13
2023-03-03T09:17:24.353Z,98820.14
2023-03-03T09:22:46.181Z,98816.56
2023-03-03T09:28:30.087Z,98811.48
2023-03-03T09:33:55.249Z,98809.86
2023-03-03T09:39:19.796Z,98811.16
2023-03-03T09:45:10.257Z,98822.27
2023-03-03T09:50:54.901Z,98832.95
2023-03-03T09:56:25.965Z,98833.66
2023-03-03T10:01:54.617Z,98822.02
2023-03-03T10:07:41.943Z,98820.67
2023-03-03T10:13:31.674Z,98827.66
2023-03-03T10:19:03.910Z,98845.57
2023-03-03T10:24:30.760Z,98857.90
2023-03-03T10:30:04.549Z,98854.77
2023-03-03T10:35:51.145Z,98852.77
2023-03-03T10:42:09.386Z,98844.25
2023-03-03T10:47:49.886Z,98853.63
2023-03-03T10:53:23.564Z,98850.51
2023-03-03T10:58:48.769Z,98847.37
2023-03-03T11:04:38.263Z,98852.10
2023-03-03T11:10:15.507Z,98848.98
2023-03-03T11:15:44.660Z,98839.53
2023-03-03T11:21:18.536Z,98836.45
2023-03-03T11:26:58.428Z,98836.10
2023-03-03T11:32:38.727Z,98837.09
2023-03-03T11:38:38.782Z,98828.16
2023-03-03T11:44:23.306Z,98823.22
2023-03-03T11:50:04.045Z,98829.30
2023-03-03T11:55:31.835Z,98840.80
2023-03-03T12:01:23.472Z,98834.73
2023-03-03T12:07:25.339Z,98830.75
2023-03-03T12:12:55.795Z,98834.02
2023-03-03T12:18:42.497Z,98827.02
2023-03-03T12:24:04.923Z,98826.80
2023-03-03T12:29:39.949Z,98816.44
2023-03-03T12:35:17.711Z,98816.42
2023-03-03T12:40:46.462Z,98808.36
2023-03-03T12:46:56.681Z,98807.89
2023-03-03T12:52:37.463Z,98805.86
2023-03-03T12:58:14.441Z,98796.76
2023-03-03T13:03:55.419Z,98799.04
2023-03-03T13:09:27.597Z,98799.56
2023-03-03T13:15:02.481Z,98795.48
2023-03-03T13:20:30.313Z,98789.06
2023-03-03T13:26:07.803Z,98791.81
2023-03-03T13:31:50.849Z,98786.83
2023-03-03T13:37:26.426Z,98793.75
2023-03-03T13:43:04.470Z,98787.63
2023-03-03T13:48:35.492Z,98788.48
2023-03-03T13:54:09.800Z,98778.40
2023-03-03T13:59:52.805Z,98778.88
2023-03-03T14:05:44.942Z,98782.38
2023-03-03T14:11:11.715Z,98786.94
2023-03-03T14:16:43.144Z,98790.52
2023-03-03T14:22:13.521Z,98781.55
2023-03-03T14:27:41.796Z,98780.93
2023-03-03T14:33:10.022Z,98777.64
2023-03-03T14:38:31.744Z,98779.45
2023-03-03T14:44:00.706Z,98775.39
2023-03-03T14:49:38.608Z,98772.91
2023-03-03T14:55:05.415Z,98773.27
2023-03-03T15:00:34.119Z,98776.08
2023-03-03T15:06:00.674Z,98775.29
2023-03-03T15:11:33.309Z,98768.14
2023-03-03T15:16:58.475Z,98765.88
2023-03-03T15:22:41.560Z,98763.80
2023-03-03T15:28:22.849Z,98757.30
2023-03-03T15:33:44.667Z,98761.59
2023-03-03T15:39:25.495Z,98758.48
2023-03-03T15:44:56.520Z,98761.65
2023-03-03T15:50:46.346Z,98763.41
2023-03-03T15:56:34.732Z,98756.70
2023-03-03T16:02:15.862Z,98760.94
2023-03-03T16:07:49.934Z,98763.48
2023-03-03T16:13:17.585Z,98764.58
2023-03-03T16:19:04.303Z,98767.55
2023-03-03T16:24:39.284Z,98765.85
2023-03-03T16:30:07.166Z,98774.71
2023-03-03T16:35:40.142Z,98767.48
2023-03-03T16:41:14.175Z,98763.63
2023-03-03T16:46:42.223Z,98770.92
2023-03-03T16:52:11.193Z,98770.56
2023-03-03T16:57:47.358Z,98771.05
2023-03-03T17:03:25.239Z,98773.06
2023-03-03T17:08:49.974Z,98774.54
2023-03-03T17:14:29.873Z,98776.45
2023-03-03T17:20:25.927Z,98782.75
2023-03-03T17:25:47.942Z,98794.44
2023-03-03T17:31:12.705Z,98793.73
2023-03-03T17:37:02.910Z,98788.94
2023-03-03T17:42:31.307Z,98790.70
2023-03-03T17:47:55.814Z,98783.98
2023-03-03T17:53:26.772Z,98791.38
2023-03-03T17:58:56.856Z,98786.09
2023-03-03T18:04:42.578Z,98785.05
2023-03-03T18:10:15.227Z,98782.52
2023-03-03T18:15:58.778Z,98784.88
2023-03-03T18:21:45.730Z,98795.50
2023-03-03T18:27:14.182Z,98797.22
2023-03-03T18:32:56.579Z,98796.34
2023-03-03T18:38:18.213Z,98795.08
2023-03-03T18:43:40.258Z,98790.96
2023-03-03T18:49:11.915Z,98787.51
2023-03-03T18:54:34.876Z,98778.02
2023-03-03T19:00:18.740Z,98774.82
2023-03-03T19:05:49.305Z,98772.45
2023-03-03T19:11:36.115Z,98775.05
2023-03-03T19:17:16.518Z,98775.56
2023-03-03T19:22:49.880Z,98781.98
2023-03-03T19:28:14.713Z,98783.13
2023-03-03T19:33:53.425Z,98778.91
2023-03-03T19:39:30.988Z,98776.41
2023-03-03T19:45:02.454Z,98774.71
2023-03-03T19:50:42.616Z,98780.29
2023-03-03T19:56:35.993Z,98777.61
2023-03-03T20:02:38.257Z,98775.33
2023-03-03T20:08:10.527Z,98772.27
2023-03-03T20:14:01.960Z,98769.84
2023-03-03T20:19:39.540Z,98766.84
2023-03-03T20:25:33.887Z,98772.23
2023-03-03T20:31:20.321Z,98776.55
2023-03-03T20:37:12.451Z,98773.37
2023-03-03T20:42:47.806Z,98773.11
2023-03-03T20:48:18.871Z,98770.13
2023-03-03T20:53:55.854Z,98764.21
2023-03-03T20:59:26.720Z,98749.54
2023-03-03T21:05:12.627Z,98748.09
2023-03-03T21:10:36.074Z,98745.77
2023-03-03T21:16:16.698Z,98743.63
2023-03-03T21:21:40.403Z,98735.70
2023-03-03T21:27:13.661Z,98731.63
2023-03-03T21:32:41.278Z,98728.95
2023-03-03T21:38:03.345Z,98728.17
2023-03-03T21:43:40.100Z,98725.17
2023-03-03T21:49:02.263Z,98721.88
2023-03-03T21:54:24.883Z,98707.69
2023-03-03T21:59:46.919Z,98702.98
2023-03-03T22:05:09.146Z,98696.98
2023-03-03T22:10:30.977Z,98691.94
2023-03-03T22:15:53.148Z,98675.83
2023-03-03T22:21:15.233Z,98667.15
2023-03-03T22:26:37.266Z,98651.11
2023-03-03T22:31:59.430Z,98644.30
2023-03-03T22:37:21.839Z,98642.59
2023-03-03T22:42:45.679Z,98635.13
2023-03-03T22:48:07.418Z,98630.38
2023-03-03T22:53:29.032Z,98631.04
2023-03-03T22:58:51.257Z,98623.78
2023-03-03T23:04:15.220Z,98620.03
2023-03-03T23:09:36.912Z,98625.73
2023-03-03T23:14:59.048Z,98624.62
2023-03-03T23:20:26.386Z,98617.44
2023-03-03T23:25:48.431Z,98602.88
2023-03-03T23:31:10.366Z,98607.13
2023-03-03T23:36:32.115Z,98606.93
2023-03-03T23:41:54.014Z,98602.08
2023-03-03T23:47:16.237Z,98597.17
2023-03-03T23:52:38.074Z,98594.13
2023-03-03T23:57:59.994Z,98582.55
